createdAt,value
2019-04-14T00:03:11.517Z,65.40
2019-04-14T00:06:17.806Z,66.50
2019-04-14T00:09:23.208Z,66.50
2019-04-14T00:12:29.405Z,66.40
2019-04-14T00:15:39.546Z,65.90
2019-04-14T00:18:42.533Z,65.50
2019-04-14T00:21:47.694Z,65.20
2019-04-14T00:24:53.202Z,64.50
2019-04-14T00:27:58.606Z,64.30
2019-04-14T00:31:04.506Z,64.10
2019-04-14T00:34:20.276Z,64.20
2019-04-14T00:37:36.398Z,64.00
2019-04-14T00:40:47.625Z,63.90
2019-04-14T00:44:12.771Z,64.00
2019-04-14T00:47:24.649Z,64.60
2019-04-14T00:50:30.176Z,64.40
2019-04-14T00:53:36.013Z,64.50
2019-04-14T00:56:41.225Z,64.60
2019-04-14T00:59:46.440Z,64.60
2019-04-14T01:02:51.614Z,64.90
2019-04-14T01:05:56.877Z,65.20
2019-04-14T01:09:02.161Z,65.30
2019-04-14T01:12:08.217Z,65.50
2019-04-14T01:15:13.676Z,65.50
2019-04-14T01:18:19.007Z,65.60
2019-04-14T01:21:24.258Z,65.80
2019-04-14T01:24:29.457Z,66.70
2019-04-14T01:27:34.450Z,66.20
2019-04-14T01:30:39.504Z,66.20
2019-04-14T01:33:44.516Z,66.60
2019-04-14T01:36:49.742Z,66.60
2019-04-14T01:39:54.757Z,66.70
2019-04-14T01:42:59.968Z,66.70
2019-04-14T01:46:12.493Z,66.80
2019-04-14T01:49:11.743Z,67.00
2019-04-14T01:52:47.947Z,67.00
2019-04-14T01:55:59.859Z,67.30
2019-04-14T01:59:06.498Z,67.40
2019-04-14T02:02:14.110Z,67.60
2019-04-14T02:05:19.265Z,67.80
2019-04-14T02:08:24.215Z,68.30
2019-04-14T02:11:29.286Z,68.50
2019-04-14T02:14:34.453Z,68.60
2019-04-14T02:17:39.493Z,68.70
2019-04-14T02:20:44.760Z,69.60
2019-04-14T02:23:49.919Z,68.90
2019-04-14T02:26:54.835Z,69.20
2019-04-14T02:30:00.330Z,69.30
2019-04-14T02:33:41.444Z,69.50
2019-04-14T02:36:37.877Z,69.50
2019-04-14T02:39:53.682Z,69.50
2019-04-14T02:42:54.364Z,69.70
2019-04-14T02:45:59.666Z,70.00
2019-04-14T02:49:08.260Z,70.40
2019-04-14T02:52:11.918Z,70.50
2019-04-14T02:55:15.356Z,70.70
2019-04-14T02:58:26.704Z,71.10
2019-04-14T03:02:02.396Z,71.20
2019-04-14T03:07:46.973Z,71.40
2019-04-14T03:10:55.819Z,71.60
2019-04-14T03:17:30.169Z,72.20
2019-04-14T03:20:32.216Z,72.30
2019-04-14T03:23:43.794Z,72.40
2019-04-14T03:26:54.202Z,72.90
2019-04-14T03:37:11.431Z,73.40
2019-04-14T03:39:46.211Z,73.30
2019-04-14T03:42:59.368Z,73.60
2019-04-14T03:45:54.759Z,73.60
2019-04-14T03:54:57.000Z,73.90
2019-04-14T03:57:47.647Z,74.00
2019-04-14T04:00:53.303Z,74.30
2019-04-14T04:03:58.605Z,74.30
2019-04-14T04:07:03.842Z,74.40
2019-04-14T04:10:14.300Z,74.90
2019-04-14T04:13:19.415Z,74.60
2019-04-14T04:16:39.736Z,74.50
2019-04-14T04:19:53.462Z,74.50
2019-04-14T04:23:36.125Z,74.60
2019-04-14T04:27:02.935Z,74.60
2019-04-14T04:30:29.949Z,74.70
2019-04-14T04:33:45.737Z,75.70
2019-04-14T04:37:21.868Z,75.10
2019-04-14T04:40:29.184Z,75.20
2019-04-14T04:43:34.143Z,75.30
2019-04-14T04:46:39.464Z,75.50
2019-04-14T04:49:44.738Z,75.60
2019-04-14T04:52:49.748Z,75.80
2019-04-14T04:55:54.714Z,76.00
2019-04-14T04:58:59.661Z,76.20
2019-04-14T05:02:04.790Z,77.40
2019-04-14T05:06:00.283Z,76.90
2019-04-14T05:09:13.016Z,77.00
2019-04-14T05:12:39.886Z,77.10
2019-04-14T05:15:48.943Z,77.50
2019-04-14T05:18:55.133Z,77.50
2019-04-14T05:22:00.630Z,77.70
2019-04-14T05:25:06.059Z,78.00
2019-04-14T05:28:11.270Z,78.00
2019-04-14T05:31:16.495Z,78.40
2019-04-14T05:34:21.607Z,78.20
2019-04-14T05:37:26.903Z,78.20
2019-04-14T05:40:32.200Z,78.00
2019-04-14T05:43:54.867Z,78.00
2019-04-14T05:46:57.823Z,78.10
2019-04-14T05:50:03.177Z,78.10
2019-04-14T05:53:08.663Z,78.00
2019-04-14T05:56:14.358Z,79.00
2019-04-14T05:59:19.914Z,78.40
2019-04-14T06:02:27.811Z,78.50
2019-04-14T06:05:31.840Z,78.50
2019-04-14T06:08:38.971Z,78.60
2019-04-14T06:11:43.909Z,79.00
2019-04-14T06:14:49.286Z,79.10
2019-04-14T06:17:54.228Z,79.70
2019-04-14T06:20:59.259Z,79.80
2019-04-14T06:24:04.325Z,79.70
2019-04-14T06:27:09.334Z,79.70
2019-04-14T06:30:33.480Z,79.60
2019-04-14T06:33:53.581Z,79.20
2019-04-14T06:37:04.592Z,78.90
2019-04-14T06:40:09.711Z,78.40
2019-04-14T06:43:14.616Z,77.90
2019-04-14T06:46:19.543Z,77.10
2019-04-14T06:49:24.464Z,76.80
2019-04-14T06:52:29.388Z,77.00
2019-04-14T06:55:34.586Z,77.20
2019-04-14T06:58:39.505Z,77.30
2019-04-14T07:01:44.505Z,77.50
2019-04-14T07:04:49.522Z,77.30
2019-04-14T07:07:57.321Z,77.00
2019-04-14T07:11:01.158Z,76.80
2019-04-14T07:14:06.226Z,76.60
2019-04-14T07:17:11.192Z,75.90
2019-04-14T07:20:16.562Z,75.10
2019-04-14T07:23:21.497Z,74.60
2019-04-14T07:26:26.443Z,74.30
2019-04-14T07:29:38.419Z,73.90
2019-04-14T07:32:58.515Z,73.80
2019-04-14T07:36:25.373Z,73.40
2019-04-14T07:39:32.174Z,72.50
2019-04-14T07:42:51.048Z,72.30
2019-04-14T07:46:09.696Z,71.80
2019-04-14T07:49:23.328Z,71.40
2019-04-14T07:52:46.145Z,71.10
2019-04-14T07:56:16.013Z,71.40
2019-04-14T07:59:31.139Z,70.70
2019-04-14T08:03:04.063Z,69.00
2019-04-14T08:06:08.975Z,68.30
2019-04-14T08:09:13.905Z,66.80
2019-04-14T08:12:18.876Z,65.40
2019-04-14T08:15:23.862Z,61.70
2019-04-14T08:18:28.834Z,58.70
2019-04-14T08:21:33.863Z,58.70
2019-04-14T08:24:38.777Z,57.00
2019-04-14T08:27:43.772Z,57.20
2019-04-14T08:30:48.688Z,56.90
2019-04-14T08:33:53.625Z,57.00
2019-04-14T08:36:58.625Z,54.80
2019-04-14T08:40:04.047Z,55.10
2019-04-14T08:43:25.213Z,56.20
2019-04-14T08:46:58.028Z,55.40
2019-04-14T08:50:13.644Z,54.90
2019-04-14T08:53:43.509Z,54.20
2019-04-14T08:57:10.346Z,53.20
2019-04-14T09:00:25.748Z,53.80
2019-04-14T09:03:49.756Z,54.20
2019-04-14T09:07:13.732Z,51.90
2019-04-14T09:10:30.394Z,52.80
2019-04-14T09:13:35.394Z,53.20
2019-04-14T09:16:40.338Z,53.20
2019-04-14T09:19:45.268Z,53.40
2019-04-14T09:22:50.284Z,53.60
2019-04-14T09:25:55.210Z,53.70
2019-04-14T09:29:00.161Z,53.70
2019-04-14T09:32:07.898Z,53.70
2019-04-14T09:35:12.974Z,53.40
2019-04-14T09:38:18.000Z,53.50
2019-04-14T09:41:23.017Z,52.70
2019-04-14T09:44:27.948Z,53.20
2019-04-14T09:47:33.060Z,53.10
2019-04-14T09:50:38.221Z,53.10
2019-04-14T09:53:43.717Z,53.80
2019-04-14T09:56:48.737Z,54.10
2019-04-14T09:59:53.717Z,54.70
2019-04-14T10:02:58.641Z,54.40
2019-04-14T10:06:03.752Z,53.70
2019-04-14T10:09:08.885Z,53.90
2019-04-14T10:12:13.889Z,54.20
2019-04-14T10:15:18.804Z,54.80
2019-04-14T10:18:23.765Z,55.30
2019-04-14T10:21:28.805Z,56.20
2019-04-14T10:24:33.832Z,56.50
2019-04-14T10:27:38.761Z,56.80
2019-04-14T10:30:43.773Z,56.70
2019-04-14T10:33:48.829Z,56.70
2019-04-14T10:36:53.754Z,56.70
2019-04-14T10:39:58.766Z,56.20
2019-04-14T10:43:03.764Z,56.20
2019-04-14T10:46:08.697Z,55.90
2019-04-14T10:49:13.794Z,55.40
2019-04-14T10:52:18.874Z,55.70
2019-04-14T10:55:23.803Z,54.30
2019-04-14T10:58:28.738Z,52.20
2019-04-14T11:01:33.933Z,52.30
2019-04-14T11:04:38.850Z,53.10
2019-04-14T11:07:43.890Z,53.00
2019-04-14T11:10:48.813Z,53.30
2019-04-14T11:13:53.732Z,53.70
2019-04-14T11:16:58.736Z,54.40
2019-04-14T11:20:03.953Z,52.80
2019-04-14T11:23:08.984Z,52.70
2019-04-14T11:26:13.926Z,53.20
2019-04-14T11:29:18.849Z,53.10
2019-04-14T11:32:42.857Z,51.20
2019-04-14T11:35:59.494Z,52.10
2019-04-14T11:39:11.305Z,53.70
2019-04-14T11:42:16.245Z,53.20
2019-04-14T11:45:21.245Z,52.80
2019-04-14T11:48:26.176Z,52.80
2019-04-14T11:51:31.267Z,52.90
2019-04-14T11:54:36.280Z,52.70
2019-04-14T11:57:41.304Z,53.60
2019-04-14T12:01:04.182Z,52.60
2019-04-14T12:04:32.046Z,54.50
2019-04-14T12:07:50.408Z,55.80
2019-04-14T12:10:55.462Z,55.40
2019-04-14T12:14:00.389Z,55.30
2019-04-14T12:17:05.416Z,55.90
2019-04-14T12:20:10.609Z,56.10
2019-04-14T12:23:16.142Z,56.40
2019-04-14T12:26:21.456Z,56.60
2019-04-14T12:29:26.464Z,57.70
2019-04-14T12:32:31.612Z,57.20
2019-04-14T12:35:36.732Z,57.20
2019-04-14T12:38:41.678Z,57.00
2019-04-14T12:41:51.033Z,57.50
2019-04-14T12:45:13.016Z,57.10
2019-04-14T12:48:40.220Z,56.70
2019-04-14T12:52:05.280Z,56.10
2019-04-14T12:55:10.446Z,55.70
2019-04-14T12:58:16.029Z,56.10
2019-04-14T13:01:22.066Z,56.10
2019-04-14T13:04:27.147Z,56.50
2019-04-14T13:07:32.126Z,57.00
2019-04-14T13:10:37.231Z,57.00
2019-04-14T13:13:42.265Z,55.90
2019-04-14T13:16:47.273Z,56.20
2019-04-14T13:19:52.297Z,56.40
2019-04-14T13:22:57.404Z,56.50
2019-04-14T13:26:02.486Z,56.50
2019-04-14T13:29:07.516Z,56.80
2019-04-14T13:32:12.571Z,57.70
2019-04-14T13:35:17.756Z,57.20
2019-04-14T13:38:22.721Z,57.20
2019-04-14T13:41:27.998Z,57.70
2019-04-14T13:44:33.102Z,57.30
2019-04-14T13:47:38.063Z,57.00
2019-04-14T13:50:43.115Z,57.10
2019-04-14T13:53:48.212Z,57.40
2019-04-14T13:56:53.303Z,58.00
2019-04-14T13:59:59.333Z,58.40
2019-04-14T14:03:04.464Z,59.00
2019-04-14T14:06:09.593Z,59.50
2019-04-14T14:09:14.714Z,59.60
2019-04-14T14:12:25.653Z,60.40
2019-04-14T14:15:50.218Z,60.00
2019-04-14T14:19:20.178Z,59.70
2019-04-14T14:22:38.998Z,59.60
2019-04-14T14:25:48.334Z,59.80
2019-04-14T14:28:53.372Z,60.20
2019-04-14T14:31:59.334Z,59.90
2019-04-14T14:35:05.439Z,60.60
2019-04-14T14:38:10.918Z,60.70
2019-04-14T14:41:17.444Z,61.20
2019-04-14T14:44:24.037Z,61.50
2019-04-14T14:47:30.519Z,62.00
2019-04-14T14:50:42.355Z,60.70
2019-04-14T14:53:47.737Z,61.50
2019-04-14T14:56:52.814Z,62.20
2019-04-14T14:59:57.838Z,62.60
2019-04-14T15:03:03.698Z,64.60
2019-04-14T15:06:08.814Z,65.30
2019-04-14T15:09:14.007Z,65.70
2019-04-14T15:12:18.970Z,66.30
2019-04-14T15:15:23.961Z,67.20
2019-04-14T15:18:29.201Z,67.50
2019-04-14T15:21:34.194Z,67.60
2019-04-14T15:24:39.592Z,67.70
2019-04-14T15:27:44.716Z,68.40
2019-04-14T15:30:49.774Z,68.20
2019-04-14T15:33:54.833Z,68.10
2019-04-14T15:36:59.861Z,68.50
2019-04-14T15:40:05.386Z,68.60
2019-04-14T15:43:10.497Z,69.00
2019-04-14T15:46:15.633Z,68.50
2019-04-14T15:49:20.619Z,69.40
2019-04-14T15:52:25.569Z,68.20
2019-04-14T15:55:30.623Z,68.10
2019-04-14T15:58:46.971Z,68.20
2019-04-14T16:02:19.268Z,68.80
2019-04-14T16:05:30.045Z,69.60
2019-04-14T16:08:44.363Z,70.20
2019-04-14T16:11:57.572Z,70.60
2019-04-14T16:15:21.113Z,71.00
2019-04-14T16:18:43.786Z,71.20
2019-04-14T16:21:48.689Z,71.80
2019-04-14T16:24:53.950Z,73.10
2019-04-14T16:28:14.525Z,72.60
2019-04-14T16:31:38.573Z,74.00
2019-04-14T16:34:50.085Z,73.10
2019-04-14T16:37:55.424Z,73.20
2019-04-14T16:41:00.559Z,73.10
2019-04-14T16:44:05.643Z,73.70
2019-04-14T16:47:11.005Z,74.10
2019-04-14T16:50:16.084Z,74.10
2019-04-14T16:53:30.340Z,74.80
2019-04-14T16:57:10.159Z,73.60
2019-04-14T17:00:22.293Z,73.50
2019-04-14T17:03:27.493Z,73.60
2019-04-14T17:06:33.133Z,73.70
2019-04-14T17:09:38.183Z,73.90
2019-04-14T17:12:43.256Z,74.30
2019-04-14T17:16:13.385Z,74.50
2019-04-14T17:19:28.793Z,74.10
2019-04-14T17:22:55.682Z,74.40
2019-04-14T17:26:05.621Z,74.30
2019-04-14T17:29:24.689Z,74.70
2019-04-14T17:32:47.542Z,75.00
2019-04-14T17:36:11.222Z,75.90
2019-04-14T17:39:26.064Z,76.90
2019-04-14T17:42:36.656Z,77.60
2019-04-14T17:46:06.604Z,77.90
2019-04-14T17:49:23.973Z,78.00
2019-04-14T17:52:41.329Z,78.00
2019-04-14T17:55:52.580Z,78.30
2019-04-14T17:59:13.438Z,78.80
2019-04-14T18:02:23.155Z,79.30
2019-04-14T18:05:41.144Z,79.60
2019-04-14T18:09:07.992Z,79.80
2019-04-14T18:12:21.916Z,80.10
2019-04-14T18:15:52.463Z,80.60
2019-04-14T18:19:07.625Z,81.00
2019-04-14T18:22:12.622Z,81.40
2019-04-14T18:25:17.779Z,81.50
2019-04-14T18:28:43.280Z,81.40
2019-04-14T18:32:03.484Z,81.50
2019-04-14T18:35:36.575Z,81.90
2019-04-14T18:38:59.172Z,81.70
2019-04-14T18:42:29.319Z,81.70
2019-04-14T18:45:44.552Z,82.00
2019-04-14T18:49:07.614Z,82.40
2019-04-14T18:52:31.732Z,82.60
2019-04-14T18:55:58.269Z,82.70
2019-04-14T18:59:25.177Z,83.10
2019-04-14T19:02:30.096Z,83.40
2019-04-14T19:05:35.081Z,83.50
2019-04-14T19:08:40.509Z,83.80
2019-04-14T19:12:17.075Z,83.60
2019-04-14T19:15:33.051Z,83.50
2019-04-14T19:18:41.131Z,83.30
2019-04-14T19:21:46.204Z,83.40
2019-04-14T19:24:51.217Z,83.80
2019-04-14T19:27:56.169Z,83.90
2019-04-14T19:31:01.145Z,83.80
2019-04-14T19:34:06.096Z,83.90
2019-04-14T19:37:11.120Z,84.20
2019-04-14T19:40:16.054Z,84.30
2019-04-14T19:43:24.107Z,84.80
2019-04-14T19:46:27.918Z,83.90
2019-04-14T19:49:32.941Z,83.90
2019-04-14T19:52:37.889Z,83.80
2019-04-14T19:55:42.918Z,83.70
2019-04-14T19:58:47.924Z,83.60
2019-04-14T20:01:53.008Z,83.40
2019-04-14T20:04:57.939Z,83.50
2019-04-14T20:08:02.888Z,83.80
2019-04-14T20:11:07.812Z,84.00
2019-04-14T20:14:12.760Z,84.30
2019-04-14T20:17:27.846Z,84.80
2019-04-14T20:20:57.363Z,85.20
2019-04-14T20:24:27.633Z,85.50
2019-04-14T20:27:36.753Z,86.00
2019-04-14T20:30:45.669Z,86.40
2019-04-14T20:33:50.799Z,86.70
2019-04-14T20:36:55.894Z,87.00
2019-04-14T20:40:00.988Z,87.10
2019-04-14T20:43:05.992Z,87.20
2019-04-14T20:46:11.272Z,87.20
2019-04-14T20:49:16.264Z,87.20
2019-04-14T20:52:21.368Z,87.60
2019-04-14T20:55:26.381Z,87.90
2019-04-14T20:58:31.486Z,88.40
2019-04-14T21:01:39.344Z,88.80
2019-04-14T21:05:17.091Z,89.00
2019-04-14T21:08:39.968Z,89.10
2019-04-14T21:11:59.489Z,89.20
2019-04-14T21:15:14.990Z,89.10
2019-04-14T21:18:36.510Z,89.50
2019-04-14T21:22:09.741Z,89.50
2019-04-14T21:25:27.969Z,89.70
2019-04-14T21:28:47.608Z,89.90
2019-04-14T21:31:55.630Z,90.00
2019-04-14T21:35:18.729Z,90.10
2019-04-14T21:38:41.035Z,90.10
2019-04-14T21:41:47.845Z,90.10
2019-04-14T21:44:52.830Z,90.50
2019-04-14T21:47:58.205Z,90.10
2019-04-14T21:51:03.187Z,90.00
2019-04-14T21:54:08.219Z,89.90
2019-04-14T21:57:47.397Z,90.00
2019-04-14T22:01:40.886Z,89.70
2019-04-14T22:05:00.707Z,89.40
2019-04-14T22:08:12.198Z,89.70
2019-04-14T22:11:21.060Z,89.70
2019-04-14T22:14:26.062Z,89.70
2019-04-14T22:17:31.069Z,89.80
2019-04-14T22:20:36.073Z,89.80
2019-04-14T22:23:41.285Z,90.10
2019-04-14T22:26:46.366Z,89.40
2019-04-14T22:29:51.367Z,89.20
2019-04-14T22:32:56.430Z,89.10
2019-04-14T22:36:01.581Z,89.00
2019-04-14T22:39:08.809Z,89.00
2019-04-14T22:42:13.816Z,88.80
2019-04-14T22:45:18.884Z,88.80
2019-04-14T22:48:23.808Z,88.70
2019-04-14T22:51:28.896Z,88.90
2019-04-14T22:54:33.834Z,88.90
2019-04-14T22:57:38.829Z,88.90
2019-04-14T23:00:51.953Z,89.20
2019-04-14T23:04:08.361Z,89.40
2019-04-14T23:07:36.081Z,89.50
2019-04-14T23:11:00.202Z,89.50
2019-04-14T23:14:14.014Z,89.50
2019-04-14T23:17:27.581Z,89.50
2019-04-14T23:20:46.147Z,89.90
2019-04-14T23:24:10.238Z,89.90
2019-04-14T23:27:16.709Z,90.00
2019-04-14T23:30:21.726Z,90.10
2019-04-14T23:33:26.651Z,90.20
2019-04-14T23:36:31.676Z,90.10
2019-04-14T23:39:36.586Z,90.50
2019-04-14T23:42:41.508Z,90.30
2019-04-14T23:45:46.504Z,90.30
2019-04-14T23:48:52.277Z,90.70
2019-04-14T23:51:57.257Z,90.20
2019-04-14T23:55:02.253Z,90.30
2019-04-14T23:58:07.250Z,90.30
